ADDS METAR Data INFO
IDs: Format: Raw Decoded Include TAF

Data at: 1749 UTC 21 Oct 2017

KFOZ 211732Z AUTO 16011G17KT 10SM OVC013 16/13 A2957 RMK AO2
KFOZ 211713Z AUTO 17014G23KT 10SM OVC015 17/13 A2958 RMK AO2
KFOZ 211652Z AUTO 16013G22KT 10SM OVC017 17/13 A2957 RMK AO2
KFOZ 211632Z AUTO 16017G21KT 10SM OVC019 17/13 A2958 RMK AO2
KFOZ 211613Z AUTO 17013G22KT 10SM OVC021 17/12 A2957 RMK AO2 LTG DSNT E
KFOZ 211552Z AUTO 17011G21KT 10SM OVC021 17/12 A2958 RMK AO2
KFOZ 211532Z AUTO 16015G20KT 10SM OVC023 17/12 A2958 RMK AO2
KFOZ 211513Z AUTO 16010G17KT 10SM OVC023 17/12 A2957 RMK AO2
KFOZ 211452Z AUTO 16010G18KT 10SM BKN023 17/12 A2958 RMK AO2
KFOZ 211432Z AUTO 15009G15KT 10SM BKN023 17/12 A2957 RMK AO2
KFOZ 211412Z AUTO 17008G18KT 10SM OVC023 17/12 A2958 RMK AO2
KFOZ 211352Z AUTO 16011G21KT 10SM BKN023 OVC110 17/12 A2958 RMK AO2
KFOZ 211332Z AUTO 17011KT 10SM BKN023 OVC110 17/12 A2958 RMK AO2
KFOZ 211312Z AUTO 17010KT 10SM OVC023 16/12 A2957 RMK AO2 TSNO
KFOZ 211252Z AUTO 16011G17KT 10SM OVC023 16/12 A2957 RMK AO2 TSNO
KFOZ 211232Z AUTO 17010G17KT 10SM BKN023 BKN032 16/12 A2956 RMK AO2
KFOZ 211212Z AUTO 16011G16KT 10SM SCT032 16/12 A2955 RMK AO2
KFOZ 211152Z AUTO 17011G18KT 153V223 10SM OVC032 16/12 A2956 RMK AO2
KFOZ 211132Z AUTO 17011G20KT 10SM OVC034 17/12 A2956 RMK AO2
KFOZ 211112Z AUTO 16013G16KT 10SM SCT028 OVC034 17/12 A2956 RMK AO2
KFOZ 211052Z AUTO 17011G15KT 10SM BKN032 17/12 A2957 RMK AO2
KFOZ 211032Z AUTO 16009G18KT 10SM SCT032 17/11 A2956 RMK AO2
KFOZ 211012Z AUTO 17013G18KT 10SM SCT032 17/11 A2956 RMK AO2
KFOZ 210952Z AUTO 16010G16KT 10SM SCT090 17/11 A2956 RMK AO2
KFOZ 210932Z AUTO 17009G16KT 10SM SCT090 17/11 A2957 RMK AO2
KFOZ 210912Z AUTO 16011G16KT 10SM CLR 17/11 A2957 RMK AO2
KFOZ 210852Z AUTO 16010G16KT 10SM CLR 17/10 A2958 RMK AO2 LTG DSNT NW
KFOZ 210832Z AUTO 16009G17KT 10SM SCT090 17/10 A2958 RMK AO2
KFOZ 210812Z AUTO 16010G19KT 10SM CLR 17/09 A2959 RMK AO2
KFOZ 210752Z AUTO 16010G15KT 10SM CLR 17/09 A2959 RMK AO2 TSNO
KFOZ 210732Z AUTO 17009G17KT 10SM SCT075 17/09 A2959 RMK AO2 TSNO
KFOZ 210712Z AUTO 16010G15KT 10SM SCT060 17/09 A2959 RMK AO2 TSNO
KFOZ 210652Z AUTO 16011G16KT 10SM CLR 17/09 A2960 RMK AO2 TSNO
KFOZ 210632Z AUTO 17010G18KT 10SM CLR 18/09 A2960 RMK AO2 TSNO
KFOZ 210612Z AUTO 16010G14KT 10SM CLR 18/08 A2960 RMK AO2 TSNO
KFOZ 210552Z AUTO 16010G16KT 10SM CLR 18/08 A2960 RMK AO2
KFOZ 210532Z AUTO 16009G16KT 10SM CLR 18/08 A2960 RMK AO2
KFOZ 210512Z AUTO 16009G16KT 10SM CLR 18/09 A2961 RMK AO2
KFOZ 210452Z AUTO 17011G16KT 10SM CLR 18/08 A2961 RMK AO2
KFOZ 210432Z AUTO 16013G18KT 10SM CLR 18/08 A2961 RMK AO2
KFOZ 210412Z AUTO 17011G19KT 10SM CLR 19/08 A2961 RMK AO2
KFOZ 210352Z AUTO 16013G19KT 10SM CLR 19/08 A2961 RMK AO2
KFOZ 210332Z AUTO 17014G18KT 10SM CLR 19/08 A2961 RMK AO2
KFOZ 210312Z AUTO 17010G17KT 10SM CLR 19/08 A2961 RMK AO2
KFOZ 210252Z AUTO 17012G23KT 10SM CLR 19/08 A2961 RMK AO2
KFOZ 210232Z AUTO 17012G20KT 10SM CLR 20/08 A2961 RMK AO2
KFOZ 210212Z AUTO 17012G19KT 10SM CLR 21/08 A2961 RMK AO2
KFOZ 210152Z AUTO 16013G21KT 143V203 10SM CLR 21/08 A2960 RMK AO2
KFOZ 210132Z AUTO 17011G20KT 10SM CLR 21/08 A2960 RMK AO2
KFOZ 210113Z AUTO 17014G18KT 10SM CLR 21/08 A2960 RMK AO2
KFOZ 210052Z AUTO 17012G23KT 10SM CLR 21/09 A2960 RMK AO2
KFOZ 210032Z AUTO 17011G17KT 10SM CLR 21/09 A2960 RMK AO2
KFOZ 210012Z AUTO 16013G19KT 10SM CLR 21/09 A2960 RMK AO2 TSNO
KFOZ 202352Z AUTO 16009G18KT 10SM CLR 21/09 A2960 RMK AO2 TSNO
KFOZ 202332Z AUTO 17011G19KT 143V203 10SM CLR 21/09 A2959 RMK AO2
KFOZ 202312Z AUTO 15010G16KT 10SM CLR 21/09 A2959 RMK AO2
KFOZ 202252Z AUTO 16009G17KT 10SM CLR 22/09 A2960 RMK AO2
KFOZ 202232Z AUTO 17008G17KT 10SM CLR 22/09 A2961 RMK AO2
KFOZ 202212Z AUTO 15011G16KT 10SM CLR 22/09 A2961 RMK AO2
KFOZ 202152Z AUTO 16010G16KT 10SM CLR 22/09 A2961 RMK AO2
KFOZ 202132Z AUTO 17008KT 10SM CLR 22/09 A2962 RMK AO2
KFOZ 202112Z AUTO 17010G21KT 10SM CLR 22/09 A2963 RMK AO2
KFOZ 202053Z AUTO 17011G20KT 10SM CLR 23/09 A2963 RMK AO2
KFOZ 202032Z AUTO 18010G21KT 10SM CLR 24/09 A2963 RMK AO2
KFOZ 202012Z AUTO 17013G17KT 10SM CLR 23/09 A2963 RMK AO2
KFOZ 201953Z AUTO 18009G16KT 10SM CLR 23/09 A2964 RMK AO2
KFOZ 201932Z AUTO 17015G20KT 10SM CLR 23/09 A2964 RMK AO2
KFOZ 201912Z AUTO 18010G20KT 10SM CLR 24/09 A2965 RMK AO2
KFOZ 201853Z AUTO 16013G19KT 10SM CLR 24/09 A2965 RMK AO2
KFOZ 201832Z AUTO 16011G19KT 123V193 10SM CLR 23/10 A2966 RMK AO2
KFOZ 201812Z AUTO 18010G17KT 10SM CLR 22/10 A2967 RMK AO2
KFOZ 201753Z AUTO 17010G18KT 10SM CLR 22/10 A2968 RMK AO2
KFOZ 201732Z AUTO 18010G16KT 10SM CLR 22/10 A2969 RMK AO2
KFOZ 201712Z AUTO 15010KT 10SM CLR 20/09 A2970 RMK AO2
KFOZ 201652Z AUTO 16009G14KT 10SM CLR 19/09 A2970 RMK AO2
KFOZ 201632Z AUTO 15007KT 10SM CLR 19/09 A2971 RMK AO2
KFOZ 201612Z AUTO 18008G14KT 10SM CLR 19/09 A2972 RMK AO2
KFOZ 201552Z AUTO 18006G09KT 10SM CLR 18/10 A2972 RMK AO2
KFOZ 201532Z AUTO 18008G14KT 10SM CLR 17/09 A2973 RMK AO2
KFOZ 201512Z AUTO 18009G15KT 10SM CLR 16/09 A2973 RMK AO2
KFOZ 201452Z AUTO 17009KT 10SM CLR 16/09 A2973 RMK AO2
KFOZ 201432Z AUTO 17006KT 10SM CLR 14/09 A2974 RMK AO2
KFOZ 201412Z AUTO 16006KT 10SM CLR 13/08 A2974 RMK AO2
KFOZ 201352Z AUTO 16005KT 10SM CLR 12/08 A2974 RMK AO2
KFOZ 201333Z AUTO 15003KT 10SM CLR 11/07 A2975 RMK AO2
KFOZ 201312Z AUTO 15003KT 10SM CLR 11/07 A2975 RMK AO2
KFOZ 201252Z AUTO 14003KT 10SM CLR 10/07 A2975 RMK AO2
KFOZ 201232Z AUTO 14003KT 10SM CLR 10/06 A2976 RMK AO2
KFOZ 201212Z AUTO 14003KT 10SM CLR 10/06 A2976 RMK AO2
KFOZ 201152Z AUTO 14003KT 10SM CLR 10/06 A2976 RMK AO2
KFOZ 201132Z AUTO 14003KT 10SM CLR 10/06 A2977 RMK AO2
KFOZ 201112Z AUTO 15003KT 10SM CLR 11/06 A2977 RMK AO2
KFOZ 201052Z AUTO 15003KT 10SM CLR 11/06 A2978 RMK AO2
KFOZ 201032Z AUTO 15003KT 10SM CLR 10/06 A2978 RMK AO2
KFOZ 201012Z AUTO 14003KT 10SM CLR 11/05 A2978 RMK AO2
KFOZ 200952Z AUTO 15003KT 10SM CLR 11/05 A2979 RMK AO2
KFOZ 200932Z AUTO 15003KT 10SM CLR 11/05 A2979 RMK AO2
KFOZ 200912Z AUTO 15003KT 10SM CLR 10/04 A2979 RMK AO2
KFOZ 200852Z AUTO 15003KT 10SM CLR 09/04 A2979 RMK AO2
KFOZ 200832Z AUTO 14003KT 10SM CLR 10/05 A2980 RMK AO2
KFOZ 200812Z AUTO 00000KT 10SM CLR 11/05 A2980 RMK AO2
KFOZ 200752Z AUTO 00000KT 10SM CLR 12/05 A2980 RMK AO2
KFOZ 200732Z AUTO 00000KT 10SM CLR 12/05 A2981 RMK AO2
KFOZ 200712Z AUTO 18004KT 10SM CLR 12/05 A2980 RMK AO2
KFOZ 200652Z AUTO 18004KT 10SM CLR 13/05 A2981 RMK AO2
KFOZ 200632Z AUTO 18005KT 10SM CLR 13/04 A2981 RMK AO2
KFOZ 200612Z AUTO 18006KT 10SM CLR 13/04 A2981 RMK AO2
KFOZ 200552Z AUTO 19006KT 10SM CLR 14/04 A2981 RMK AO2